Time;durP1;ratioP1;P1;durP2;ratioP2;P2;SDS_P1;SDS_P2;PMS_P1;PMS_P2;Temp;Humidity;BMP_temperature;BMP_pressure;BME280_temperature;BME280_humidity;BME280_pressure;Samples;Min_cycle;Max_cycle;Signal;HPM_P1;HPM_P2
2023/01/06 00:01:22;;;;;;;1999.90;999.90;;;9.00;99.90;;;;;;5010158;28;20473;-69
2023/01/06 00:03:50;;;;;;;1999.90;999.90;;;8.80;99.90;;;;;;5011022;28;20491;-67
2023/01/06 00:06:19;;;;;;;1999.90;999.90;;;9.00;99.90;;;;;;5011623;28;20443;-68
2023/01/06 00:08:46;;;;;;;1999.90;999.90;;;9.10;99.90;;;;;;5010967;28;20936;-67
2023/01/06 00:11:15;;;;;;;1999.90;999.90;;;9.00;99.90;;;;;;5011292;28;20453;-68
2023/01/06 00:13:41;;;;;;;1999.90;999.90;;;9.10;99.90;;;;;;5009099;28;20430;-68
2023/01/06 00:16:10;;;;;;;1999.90;999.90;;;9.10;99.90;;;;;;5010172;28;20445;-67
2023/01/06 00:18:37;;;;;;;1999.90;999.90;;;9.00;99.90;;;;;;5010451;28;20494;-64
2023/01/06 00:21:06;;;;;;;1999.90;999.90;;;9.10;99.90;;;;;;5009618;28;20436;-68
2023/01/06 00:23:35;;;;;;;1999.90;999.90;;;9.20;99.90;;;;;;5007990;28;20479;-68
2023/01/06 00:26:02;;;;;;;1999.90;999.90;;;9.10;99.90;;;;;;5007467;28;20436;-70
2023/01/06 00:28:29;;;;;;;1999.90;999.90;;;9.00;99.90;;;;;;5008050;28;20440;-68
2023/01/06 00:30:55;;;;;;;1999.90;999.90;;;9.00;99.90;;;;;;5009738;28;20440;-67
2023/01/06 00:33:22;;;;;;;1999.90;999.90;;;9.10;99.90;;;;;;5010618;28;20932;-70
2023/01/06 00:35:49;;;;;;;1999.90;999.90;;;9.10;99.90;;;;;;5006403;28;20933;-67
2023/01/06 00:38:16;;;;;;;1999.90;999.90;;;9.10;99.90;;;;;;5008951;28;20444;-66
2023/01/06 00:40:44;;;;;;;1999.90;999.90;;;9.20;99.90;;;;;;5006517;28;20483;-67
2023/01/06 00:43:11;;;;;;;1999.90;999.90;;;9.30;99.90;;;;;;5005665;28;20837;-68
2023/01/06 00:45:37;;;;;;;1999.90;999.90;;;9.40;99.90;;;;;;5008247;28;20483;-69
2023/01/06 00:48:05;;;;;;;1999.90;999.90;;;9.40;99.90;;;;;;5011000;28;20436;-68
2023/01/06 00:50:31;;;;;;;1999.90;999.90;;;9.50;99.90;;;;;;5007740;28;20469;-70
2023/01/06 00:52:58;;;;;;;1999.90;999.90;;;9.40;99.90;;;;;;5007009;28;20440;-67
2023/01/06 00:55:24;;;;;;;1999.90;999.90;;;9.30;99.90;;;;;;5007807;28;20495;-68
2023/01/06 00:57:53;;;;;;;1999.90;999.90;;;9.30;99.90;;;;;;5008525;28;20796;-68
2023/01/06 01:00:20;;;;;;;1999.90;999.90;;;9.20;99.90;;;;;;5008818;28;20432;-68
2023/01/06 01:02:47;;;;;;;1999.90;999.90;;;9.20;99.90;;;;;;5011623;28;20436;-69
2023/01/06 01:05:14;;;;;;;1999.90;999.90;;;9.20;99.90;;;;;;5009155;28;20440;-67
2023/01/06 01:07:40;;;;;;;1999.90;999.90;;;9.30;99.90;;;;;;5005580;28;20440;-68
2023/01/06 01:10:08;;;;;;;1999.90;999.90;;;9.30;99.90;;;;;;5008137;28;20490;-68
2023/01/06 01:12:35;;;;;;;1999.90;999.90;;;9.20;99.90;;;;;;5007495;28;20486;-69
2023/01/06 01:15:03;;;;;;;1999.90;999.90;;;9.30;99.90;;;;;;5006383;28;20440;-68
2023/01/06 01:17:31;;;;;;;1999.90;999.90;;;9.30;99.90;;;;;;5008046;28;20432;-71
2023/01/06 01:19:59;;;;;;;1999.90;999.90;;;9.20;99.90;;;;;;5005739;28;20486;-68
2023/01/06 01:22:28;;;;;;;1999.90;999.90;;;9.20;99.90;;;;;;5006105;28;20523;-66
2023/01/06 01:24:55;;;;;;;1999.90;999.90;;;9.20;99.90;;;;;;5005483;28;20428;-69
2023/01/06 01:27:22;;;;;;;1999.90;999.90;;;9.20;99.90;;;;;;5008041;28;20436;-66
2023/01/06 01:29:48;;;;;;;1999.90;999.90;;;9.40;99.90;;;;;;5007917;28;20460;-70
2023/01/06 01:32:16;;;;;;;1999.90;999.90;;;9.50;99.90;;;;;;5008561;28;20464;-68
2023/01/06 01:34:43;;;;;;;1999.90;999.90;;;9.60;99.90;;;;;;5004373;28;20512;-68
2023/01/06 01:37:09;;;;;;;1999.90;999.90;;;9.50;99.90;;;;;;5007632;28;20441;-68
2023/01/06 01:39:36;;;;;;;1999.90;999.90;;;9.50;99.90;;;;;;5004577;28;20435;-68
2023/01/06 01:42:03;;;;;;;1999.90;999.90;;;9.60;99.90;;;;;;5008559;28;20432;-67
2023/01/06 01:44:59;;;;;;;1999.90;999.90;;;9.80;99.90;;;;;;5007804;28;20995;-70
2023/01/06 01:47:45;;;;;;;1999.90;999.90;;;9.80;99.90;;;;;;4980761;28;20847;-68
2023/01/06 01:50:26;;;;;;;1999.90;999.90;;;9.80;99.90;;;;;;5011173;28;20995;-68
2023/01/06 01:52:56;;;;;;;1999.90;999.90;;;9.80;99.90;;;;;;5006159;28;20503;-68
2023/01/06 01:55:24;;;;;;;1999.90;999.90;;;9.90;99.90;;;;;;5003234;28;20506;-68
2023/01/06 01:57:58;;;;;;;1999.90;999.90;;;9.90;99.90;;;;;;5006634;28;20499;-68
2023/01/06 02:00:25;;;;;;;1999.90;999.90;;;10.10;99.90;;;;;;5009110;28;20501;-69
2023/01/06 02:02:53;;;;;;;1999.90;999.90;;;10.10;99.90;;;;;;5005120;28;20787;-68
2023/01/06 02:05:24;;;;;;;1999.90;999.90;;;10.00;99.90;;;;;;5006767;28;20432;-66
2023/01/06 02:07:51;;;;;;;1999.90;999.90;;;9.90;99.90;;;;;;5003616;28;20921;-68
2023/01/06 02:10:21;;;;;;;1999.90;999.90;;;9.90;99.90;;;;;;5005562;28;20429;-68
2023/01/06 02:12:51;;;;;;;1999.90;999.90;;;10.00;99.90;;;;;;5006468;28;20433;-68
2023/01/06 02:15:20;;;;;;;1999.90;999.90;;;10.00;99.90;;;;;;5009039;28;20464;-68
2023/01/06 02:18:18;;;;;;;1999.90;999.90;;;9.90;99.90;;;;;;5004275;28;20986;-66
2023/01/06 02:21:02;;;;;;;1999.90;999.90;;;9.90;99.90;;;;;;4999289;28;20478;-67
2023/01/06 02:24:25;;;;;;;1999.90;999.90;;;9.70;99.90;;;;;;5004117;28;20433;-68
2023/01/06 02:27:24;;;;;;;1999.90;999.90;;;9.60;99.90;;;;;;5006237;28;20491;-68
2023/01/06 02:30:28;;;;;;;1999.90;999.90;;;9.60;99.90;;;;;;5006555;28;20442;-65
2023/01/06 02:33:13;;;;;;;1999.90;999.90;;;9.60;99.90;;;;;;5005963;28;21171;-67
2023/01/06 02:36:02;;;;;;;1999.90;999.90;;;9.50;99.90;;;;;;5001596;28;20430;-69
2023/01/06 02:38:41;;;;;;;1999.90;999.90;;;9.50;99.90;;;;;;5001167;28;20490;-67
2023/01/06 02:41:16;;;;;;;1999.90;999.90;;;9.40;99.90;;;;;;5003510;28;20441;-71
2023/01/06 02:43:51;;;;;;;1999.90;999.90;;;9.40;99.90;;;;;;5008779;28;20518;-67
2023/01/06 02:46:28;;;;;;;1999.90;999.90;;;9.50;99.90;;;;;;5005363;28;20548;-68
2023/01/06 02:49:05;;;;;;;1999.90;999.90;;;9.50;99.90;;;;;;5006750;28;20940;-69
2023/01/06 02:51:36;;;;;;;1999.90;999.90;;;9.60;99.90;;;;;;5005071;28;20499;-68
2023/01/06 02:54:11;;;;;;;1999.90;999.90;;;9.60;99.90;;;;;;5006264;28;20515;-68
2023/01/06 02:56:44;;;;;;;1999.90;999.90;;;9.60;99.90;;;;;;5004474;28;22039;-68
2023/01/06 02:59:19;;;;;;;1999.90;999.90;;;9.60;99.90;;;;;;5008063;28;20437;-67
2023/01/06 03:01:49;;;;;;;1999.90;999.90;;;9.70;99.90;;;;;;5005286;28;20503;-68
2023/01/06 03:04:23;;;;;;;1999.90;999.90;;;9.80;99.90;;;;;;5008181;28;20432;-68
2023/01/06 03:06:52;;;;;;;1999.90;999.90;;;9.80;99.90;;;;;;5004240;28;20459;-71
2023/01/06 03:09:22;;;;;;;1999.90;999.90;;;9.80;99.90;;;;;;5005685;28;20436;-68
2023/01/06 03:11:51;;;;;;;1999.90;999.90;;;9.80;99.90;;;;;;5006687;28;20440;-68
2023/01/06 03:14:24;;;;;;;1999.90;999.90;;;9.90;99.90;;;;;;5008750;28;20494;-68
2023/01/06 03:16:51;;;;;;;1999.90;999.90;;;9.90;99.90;;;;;;5001257;28;20442;-69
2023/01/06 03:19:19;;;;;;;1999.90;999.90;;;10.00;99.90;;;;;;5003703;28;20559;-67
2023/01/06 03:21:48;;;;;;;1999.90;999.90;;;10.00;99.90;;;;;;5004727;28;21801;-68
2023/01/06 03:24:15;;;;;;;1999.90;999.90;;;9.90;99.90;;;;;;5006516;28;20441;-67
2023/01/06 03:26:45;;;;;;;1999.90;999.90;;;9.90;99.90;;;;;;5011058;28;20498;-68
2023/01/06 03:29:15;;;;;;;1999.90;999.90;;;9.90;99.90;;;;;;5009691;28;20490;-69
2023/01/06 03:31:49;;;;;;;1999.90;999.90;;;10.10;99.90;;;;;;5007566;28;20980;-68
2023/01/06 03:34:26;;;;;;;1999.90;999.90;;;10.10;99.90;;;;;;5009657;28;20444;-67
2023/01/06 03:37:02;;;;;;;1999.90;999.90;;;10.20;99.90;;;;;;5006894;28;20488;-68
2023/01/06 03:39:38;;;;;;;1999.90;999.90;;;10.50;99.90;;;;;;5006535;28;20428;-67
2023/01/06 03:45:18;;;;;;;1999.90;999.90;;;10.30;99.90;;;;;;5008895;28;20416;-68
2023/01/06 03:47:52;;;;;;;1999.90;999.90;;;10.30;99.90;;;;;;5003110;28;20442;-68
2023/01/06 03:50:23;;;;;;;1999.90;999.90;;;10.30;99.90;;;;;;5008171;28;20939;-69
2023/01/06 03:52:57;;;;;;;1999.90;999.90;;;10.50;99.90;;;;;;5007049;28;20970;-67
2023/01/06 03:55:30;;;;;;;1999.90;999.90;;;10.60;99.90;;;;;;5009044;28;20432;-67
2023/01/06 03:58:00;;;;;;;1999.90;999.90;;;10.70;99.90;;;;;;5005297;28;20438;-67
2023/01/06 04:00:29;;;;;;;1999.90;999.90;;;10.70;99.90;;;;;;5006800;28;20463;-67
2023/01/06 04:02:56;;;;;;;1999.90;999.90;;;10.70;99.90;;;;;;5006545;28;20909;-69
2023/01/06 04:05:27;;;;;;;1999.90;999.90;;;10.70;99.90;;;;;;5008342;28;20428;-68
2023/01/06 04:07:54;;;;;;;1999.90;999.90;;;10.50;99.90;;;;;;5004755;28;20437;-69
2023/01/06 04:10:22;;;;;;;1999.90;999.90;;;10.40;99.90;;;;;;5005363;28;20444;-68
2023/01/06 04:12:48;;;;;;;1999.90;999.90;;;10.30;99.90;;;;;;5005268;28;20436;-69
2023/01/06 04:15:17;;;;;;;1999.90;999.90;;;10.30;99.90;;;;;;5008757;28;20840;-68
2023/01/06 04:17:44;;;;;;;1999.90;999.90;;;10.20;99.90;;;;;;5005965;28;20436;-68
2023/01/06 04:20:14;;;;;;;1999.90;999.90;;;10.30;99.90;;;;;;5008845;28;20898;-69
2023/01/06 04:22:42;;;;;;;1999.90;999.90;;;10.20;99.90;;;;;;5002539;28;20434;-68
2023/01/06 04:25:09;;;;;;;1999.90;999.90;;;10.20;99.90;;;;;;5005025;28;20872;-68
2023/01/06 04:27:36;;;;;;;1999.90;999.90;;;10.20;99.90;;;;;;5002300;28;20443;-68
2023/01/06 04:30:04;;;;;;;1999.90;999.90;;;10.10;99.90;;;;;;5009708;28;20444;-68
2023/01/06 04:32:30;;;;;;;1999.90;999.90;;;10.10;99.90;;;;;;5003727;28;20929;-68
2023/01/06 04:34:57;;;;;;;1999.90;999.90;;;10.10;99.90;;;;;;5007503;28;20443;-68
2023/01/06 04:37:24;;;;;;;1999.90;999.90;;;10.00;99.90;;;;;;5004363;28;20482;-68
2023/01/06 04:39:52;;;;;;;1999.90;999.90;;;10.00;99.90;;;;;;5007002;28;20496;-70
2023/01/06 04:42:19;;;;;;;1999.90;999.90;;;10.00;99.90;;;;;;5007212;28;20436;-68
2023/01/06 04:44:45;;;;;;;1999.90;999.90;;;10.10;99.90;;;;;;5001155;28;20793;-71
2023/01/06 04:47:12;;;;;;;1999.90;999.90;;;10.20;99.90;;;;;;5006434;28;20856;-68
2023/01/06 04:49:39;;;;;;;1999.90;999.90;;;10.20;99.90;;;;;;5006771;28;20444;-68
2023/01/06 04:52:05;;;;;;;1999.90;999.90;;;10.30;99.90;;;;;;5006795;28;20492;-68
2023/01/06 04:54:32;;;;;;;1999.90;999.90;;;10.50;99.90;;;;;;5005275;28;20807;-68
2023/01/06 04:57:00;;;;;;;1999.90;999.90;;;10.50;99.90;;;;;;5001546;28;20997;-68
2023/01/06 04:59:27;;;;;;;1999.90;999.90;;;10.50;99.90;;;;;;5003018;28;20437;-68
2023/01/06 05:01:53;;;;;;;1999.90;999.90;;;10.60;99.90;;;;;;5002138;28;20434;-67
2023/01/06 05:04:20;;;;;;;1999.90;999.90;;;10.60;99.90;;;;;;5009810;28;20437;-68
2023/01/06 05:06:47;;;;;;;1999.90;999.90;;;10.50;99.90;;;;;;5003376;28;20535;-69
2023/01/06 05:09:13;;;;;;;1999.90;999.90;;;10.50;99.90;;;;;;5002944;28;20802;-68
2023/01/06 05:11:40;;;;;;;1999.90;999.90;;;10.60;99.90;;;;;;5003173;28;20434;-68
2023/01/06 05:14:08;;;;;;;1999.90;999.90;;;10.60;99.90;;;;;;5001492;28;20449;-67
2023/01/06 05:16:36;;;;;;;1999.90;999.90;;;10.70;99.90;;;;;;5000535;28;20436;-69
2023/01/06 05:19:03;;;;;;;1999.90;999.90;;;10.70;99.90;;;;;;5008717;28;20464;-68
2023/01/06 05:21:30;;;;;;;1999.90;999.90;;;10.70;99.90;;;;;;5010481;28;20432;-72
2023/01/06 05:23:57;;;;;;;1999.90;999.90;;;10.70;99.90;;;;;;5002208;28;20496;-71
2023/01/06 05:26:26;;;;;;;1999.90;999.90;;;10.70;99.90;;;;;;5003651;28;20436;-71
2023/01/06 05:28:53;;;;;;;1999.90;999.90;;;10.80;99.90;;;;;;5002942;28;20976;-70
2023/01/06 05:31:22;;;;;;;1999.90;999.90;;;10.80;99.90;;;;;;5005877;28;20483;-71
2023/01/06 05:33:48;;;;;;;1999.90;999.90;;;10.80;99.90;;;;;;5008220;28;20924;-69
2023/01/06 05:36:16;;;;;;;1999.90;999.90;;;10.70;99.90;;;;;;5001450;28;20436;-72
2023/01/06 05:38:43;;;;;;;1999.90;999.90;;;10.70;99.90;;;;;;5001721;28;20438;-72
2023/01/06 05:41:10;;;;;;;1999.90;999.90;;;10.70;99.90;;;;;;5006167;28;20498;-71
2023/01/06 05:43:37;;;;;;;1999.90;999.90;;;10.70;99.90;;;;;;5003123;28;20463;-70
2023/01/06 05:46:06;;;;;;;1999.90;999.90;;;10.60;99.90;;;;;;5006245;28;20481;-70
2023/01/06 05:48:34;;;;;;;1999.90;999.90;;;10.60;99.90;;;;;;5007989;28;20589;-71
2023/01/06 05:51:02;;;;;;;1999.90;999.90;;;10.60;99.90;;;;;;5024317;28;20482;-70
2023/01/06 05:53:31;;;;;;;1999.90;999.90;;;10.60;99.90;;;;;;5001465;28;20528;-71
2023/01/06 05:56:00;;;;;;;1999.90;999.90;;;10.60;99.90;;;;;;4998929;28;20461;-70
2023/01/06 05:58:27;;;;;;;1999.90;999.90;;;10.60;99.90;;;;;;4999736;28;20436;-71
2023/01/06 06:00:53;;;;;;;1999.90;999.90;;;10.60;99.90;;;;;;5004448;28;20433;-71
2023/01/06 06:03:20;;;;;;;1999.90;999.90;;;10.70;99.90;;;;;;5008144;28;20440;-70
2023/01/06 06:05:48;;;;;;;1999.90;999.90;;;10.70;99.90;;;;;;4997486;28;20430;-71
2023/01/06 06:08:14;;;;;;;1999.90;999.90;;;10.70;99.90;;;;;;5000762;28;20478;-70
2023/01/06 06:10:41;;;;;;;1999.90;999.90;;;10.60;99.90;;;;;;5004449;28;20432;-71
2023/01/06 06:13:08;;;;;;;1999.90;999.90;;;10.70;99.90;;;;;;5003544;28;20440;-70
2023/01/06 06:15:35;;;;;;;1999.90;999.90;;;10.70;99.90;;;;;;5003709;28;20525;-70
2023/01/06 06:18:02;;;;;;;1999.90;999.90;;;10.60;99.90;;;;;;5007194;28;20451;-71
2023/01/06 06:20:29;;;;;;;1999.90;999.90;;;10.50;99.90;;;;;;4940137;28;1718327;-71
2023/01/06 06:22:57;;;;;;;1999.90;999.90;;;10.50;99.90;;;;;;5000663;28;20496;-71
2023/01/06 06:25:23;;;;;;;1999.90;999.90;;;10.50;99.90;;;;;;5007883;28;20432;-71
2023/01/06 06:27:50;;;;;;;1999.90;999.90;;;10.60;99.90;;;;;;5000973;28;20440;-69
2023/01/06 06:30:16;;;;;;;1999.90;999.90;;;10.60;99.90;;;;;;5007650;28;20432;-71
2023/01/06 06:32:43;;;;;;;1999.90;999.90;;;11.10;99.90;;;;;;5003012;28;20488;-71
2023/01/06 06:35:10;;;;;;;1999.90;999.90;;;10.60;99.90;;;;;;4999127;28;20444;-72
2023/01/06 06:37:36;;;;;;;1999.90;999.90;;;10.70;99.90;;;;;;5001274;28;20557;-71
2023/01/06 06:40:06;;;;;;;1999.90;999.90;;;10.80;99.90;;;;;;4998691;28;20517;-69
2023/01/06 06:42:33;;;;;;;1999.90;999.90;;;10.80;99.90;;;;;;5001593;28;20514;-70
2023/01/06 06:45:00;;;;;;;1999.90;999.90;;;10.80;99.90;;;;;;5001560;28;20839;-69
2023/01/06 06:47:26;;;;;;;1999.90;999.90;;;10.70;99.90;;;;;;5007583;28;20440;-70
2023/01/06 06:49:53;;;;;;;1999.90;999.90;;;10.60;99.90;;;;;;5004144;28;20473;-71
2023/01/06 06:52:20;;;;;;;1999.90;999.90;;;10.60;99.90;;;;;;4998872;28;20428;-71
2023/01/06 06:54:46;;;;;;;1999.90;999.90;;;10.60;99.90;;;;;;4996811;28;20516;-71
2023/01/06 06:57:14;;;;;;;1999.90;999.90;;;10.60;99.90;;;;;;4999065;28;21481;-71
2023/01/06 06:59:41;;;;;;;1999.90;999.90;;;10.70;99.90;;;;;;4997155;28;20492;-72
2023/01/06 07:02:09;;;;;;;1999.90;999.90;;;10.70;99.90;;;;;;5006648;28;20487;-71
2023/01/06 07:04:35;;;;;;;1999.90;999.90;;;10.80;99.90;;;;;;5009468;28;20912;-72
2023/01/06 07:07:02;;;;;;;1999.90;999.90;;;10.80;99.90;;;;;;5011153;28;20440;-70
2023/01/06 07:09:29;;;;;;;1999.90;999.90;;;10.80;99.90;;;;;;5006502;28;20423;-70
2023/01/06 07:11:55;;;;;;;1999.90;999.90;;;10.80;99.90;;;;;;5003053;28;20500;-71
2023/01/06 07:14:23;;;;;;;1999.90;999.90;;;10.80;99.90;;;;;;5002993;28;20867;-71
2023/01/06 07:16:50;;;;;;;1999.90;999.90;;;10.90;99.90;;;;;;5007570;28;20440;-71
2023/01/06 07:19:16;;;;;;;1999.90;999.90;;;10.80;99.90;;;;;;5010853;28;20856;-71
2023/01/06 07:21:43;;;;;;;1999.90;999.90;;;10.80;99.90;;;;;;5004929;28;20439;-71
2023/01/06 07:24:10;;;;;;;1999.90;999.90;;;10.70;99.90;;;;;;5010954;28;20536;-70
2023/01/06 07:26:36;;;;;;;1999.90;999.90;;;10.70;99.90;;;;;;5011847;28;20432;-71
2023/01/06 07:29:03;;;;;;;1999.90;999.90;;;10.80;99.90;;;;;;5002783;28;20516;-70
2023/01/06 07:31:31;;;;;;;1999.90;999.90;;;10.80;99.90;;;;;;5004844;28;20498;-70
2023/01/06 07:33:58;;;;;;;1999.90;999.90;;;10.90;99.90;;;;;;5006778;28;20834;-69
2023/01/06 07:36:24;;;;;;;1999.90;999.90;;;10.80;99.90;;;;;;5008177;28;20945;-70
2023/01/06 07:38:51;;;;;;;1999.90;999.90;;;10.90;99.90;;;;;;5007794;28;20496;-70
2023/01/06 07:41:17;;;;;;;1999.90;999.90;;;10.90;99.90;;;;;;5006869;28;20444;-68
2023/01/06 07:43:44;;;;;;;1999.90;999.90;;;10.90;99.90;;;;;;5003915;28;20446;-71
2023/01/06 07:46:11;;;;;;;1999.90;999.90;;;10.80;99.90;;;;;;5009747;28;20440;-69
2023/01/06 07:48:39;;;;;;;1999.90;999.90;;;10.80;99.90;;;;;;5001801;28;20491;-68
2023/01/06 07:51:06;;;;;;;1999.90;999.90;;;10.80;99.90;;;;;;5011375;28;20432;-70
2023/01/06 07:53:32;;;;;;;1999.90;999.90;;;10.70;99.90;;;;;;5008143;28;20460;-70
2023/01/06 07:55:59;;;;;;;1999.90;999.90;;;10.60;99.90;;;;;;4999451;28;20438;-71
2023/01/06 07:58:26;;;;;;;1999.90;999.90;;;10.70;99.90;;;;;;5001335;28;20428;-70
2023/01/06 08:00:53;;;;;;;1999.90;999.90;;;10.70;99.90;;;;;;5004877;28;20445;-70
2023/01/06 08:03:19;;;;;;;1999.90;999.90;;;10.70;99.90;;;;;;5002843;28;20487;-68
2023/01/06 08:05:47;;;;;;;1999.90;999.90;;;10.70;99.90;;;;;;5011428;28;20851;-69
2023/01/06 08:08:14;;;;;;;1999.90;999.90;;;10.70;99.90;;;;;;5004673;28;20496;-70
2023/01/06 08:10:41;;;;;;;1999.90;999.90;;;10.70;99.90;;;;;;5008419;28;20434;-68
2023/01/06 08:13:08;;;;;;;1999.90;999.90;;;10.80;99.90;;;;;;4999592;28;20497;-69
2023/01/06 08:15:35;;;;;;;1999.90;999.90;;;10.80;99.90;;;;;;4998968;28;20432;-69
2023/01/06 08:18:02;;;;;;;1999.90;999.90;;;10.80;99.90;;;;;;5002384;28;20450;-68
2023/01/06 08:20:29;;;;;;;1999.90;999.90;;;10.70;99.90;;;;;;4999401;28;20444;-67
2023/01/06 08:22:57;;;;;;;1999.90;999.90;;;10.80;99.90;;;;;;5007191;28;20463;-69
2023/01/06 08:25:24;;;;;;;1999.90;999.90;;;10.80;99.90;;;;;;5003753;28;20448;-69
2023/01/06 08:27:50;;;;;;;1999.90;999.90;;;10.90;99.90;;;;;;5007714;28;20429;-69
2023/01/06 08:30:20;;;;;;;1999.90;999.90;;;10.80;99.90;;;;;;5004980;28;20444;-69
2023/01/06 08:32:47;;;;;;;1999.90;999.90;;;10.80;99.90;;;;;;4997846;28;20430;-67
2023/01/06 08:35:14;;;;;;;1999.90;999.90;;;10.70;99.90;;;;;;4999509;28;20430;-69
2023/01/06 08:37:41;;;;;;;1999.90;999.90;;;10.80;99.90;;;;;;4997621;28;20434;-69
2023/01/06 08:40:09;;;;;;;1999.90;999.90;;;10.80;99.90;;;;;;4998605;28;20861;-68
2023/01/06 08:42:36;;;;;;;1999.90;999.90;;;10.80;99.90;;;;;;5005632;28;20432;-64
2023/01/06 08:45:03;;;;;;;1999.90;999.90;;;10.90;99.90;;;;;;5002653;28;20530;-73
2023/01/06 08:47:30;;;;;;;1999.90;999.90;;;10.80;99.90;;;;;;5008980;28;20432;-70
2023/01/06 08:49:56;;;;;;;1999.90;999.90;;;10.80;99.90;;;;;;4997627;28;20470;-70
2023/01/06 08:52:23;;;;;;;1999.90;999.90;;;10.80;99.90;;;;;;5000673;28;20440;-67
2023/01/06 08:54:50;;;;;;;1999.90;999.90;;;11.00;99.90;;;;;;5004114;28;20442;-70
2023/01/06 08:57:18;;;;;;;1999.90;999.90;;;11.00;99.90;;;;;;5008745;28;20494;-68
2023/01/06 08:59:44;;;;;;;1999.90;999.90;;;11.00;99.90;;;;;;5007086;28;20859;-67
2023/01/06 09:02:11;;;;;;;1999.90;999.90;;;11.20;99.90;;;;;;5006260;28;20848;-68
2023/01/06 09:04:37;;;;;;;1999.90;999.90;;;11.20;99.90;;;;;;5007186;28;20465;-68
2023/01/06 09:07:04;;;;;;;1999.90;999.90;;;11.10;99.90;;;;;;5007323;28;20440;-68
2023/01/06 09:09:31;;;;;;;1999.90;999.90;;;11.00;99.90;;;;;;5006662;28;20445;-69
2023/01/06 09:11:57;;;;;;;1999.90;999.90;;;11.10;99.90;;;;;;5009639;28;20432;-68
2023/01/06 09:14:26;;;;;;;1999.90;999.90;;;11.20;99.90;;;;;;5008658;28;20436;-67
2023/01/06 09:16:52;;;;;;;1999.90;999.90;;;11.20;99.90;;;;;;5009138;28;20440;-67
2023/01/06 09:19:19;;;;;;;1999.90;999.90;;;11.20;99.90;;;;;;5006722;28;20498;-67
2023/01/06 09:21:46;;;;;;;1999.90;999.90;;;11.20;99.90;;;;;;5005700;28;20456;-67
2023/01/06 09:24:13;;;;;;;1999.90;999.90;;;11.30;99.90;;;;;;5005840;28;20437;-67
2023/01/06 09:26:40;;;;;;;1999.90;999.90;;;11.30;99.90;;;;;;5008029;28;20440;-70
2023/01/06 09:29:07;;;;;;;1999.90;999.90;;;11.30;99.90;;;;;;5006009;28;20459;-67
2023/01/06 09:31:35;;;;;;;1999.90;999.90;;;11.20;99.90;;;;;;5009010;28;20435;-70
2023/01/06 09:34:01;;;;;;;1999.90;999.90;;;11.20;99.90;;;;;;5009295;28;20908;-68
2023/01/06 09:36:28;;;;;;;1999.90;999.90;;;11.20;99.90;;;;;;5008231;28;20510;-67
2023/01/06 09:38:55;;;;;;;1999.90;999.90;;;11.20;99.90;;;;;;5006761;28;20452;-69
2023/01/06 09:41:49;;;;;;;1999.90;999.90;;;11.20;99.90;;;;;;5004886;28;20437;-68
2023/01/06 09:44:19;;;;;;;1999.90;999.90;;;11.10;99.90;;;;;;5005237;28;20444;-68
2023/01/06 09:46:50;;;;;;;1999.90;999.90;;;11.10;99.90;;;;;;5004139;28;20835;-68
2023/01/06 09:49:24;;;;;;;1999.90;999.90;;;11.10;99.90;;;;;;5003782;28;20443;-69
2023/01/06 09:51:53;;;;;;;1999.90;999.90;;;11.20;99.90;;;;;;5010731;28;20535;-70
2023/01/06 09:54:24;;;;;;;1999.90;999.90;;;11.20;99.90;;;;;;5004669;28;20452;-70
2023/01/06 09:56:56;;;;;;;1999.90;999.90;;;11.20;99.90;;;;;;5008149;28;20490;-69
2023/01/06 09:59:28;;;;;;;1999.90;999.90;;;11.10;99.90;;;;;;5005836;28;20440;-69
2023/01/06 10:01:58;;;;;;;1999.90;999.90;;;11.30;99.90;;;;;;5003187;28;20428;-69
2023/01/06 10:04:27;;;;;;;1999.90;999.90;;;11.10;99.90;;;;;;5004047;28;20440;-71
2023/01/06 10:07:05;;;;;;;1999.90;999.90;;;11.30;99.90;;;;;;5007849;28;20443;-70
2023/01/06 10:09:40;;;;;;;1999.90;999.90;;;11.50;99.90;;;;;;5004193;28;20445;-68
2023/01/06 10:12:22;;;;;;;1999.90;999.90;;;11.60;99.90;;;;;;5005536;28;20436;-68
2023/01/06 10:14:59;;;;;;;1999.90;999.90;;;11.90;99.90;;;;;;5001714;28;20436;-68
2023/01/06 10:17:43;;;;;;;1999.90;999.90;;;11.90;99.90;;;;;;5005801;28;20484;-68
2023/01/06 10:20:35;;;;;;;1999.90;999.90;;;12.00;99.90;;;;;;5004812;28;21151;-69
2023/01/06 10:23:15;;;;;;;1999.90;999.90;;;11.90;99.90;;;;;;5003725;28;20959;-70
2023/01/06 10:25:46;;;;;;;1999.90;999.90;;;11.70;99.90;;;;;;5018862;28;20439;-69
2023/01/06 10:28:19;;;;;;;1999.90;999.90;;;11.50;99.90;;;;;;5018587;28;20495;-70
2023/01/06 10:30:49;;;;;;;1999.90;999.90;;;11.50;99.90;;;;;;5014477;28;20850;-66
2023/01/06 10:33:22;;;;;;;1999.90;999.90;;;11.60;99.90;;;;;;5021498;28;20427;-68
2023/01/06 10:35:49;;;;;;;1999.90;999.90;;;11.80;99.90;;;;;;5010791;28;20527;-68
2023/01/06 10:38:18;;;;;;;1999.90;999.90;;;11.80;99.90;;;;;;5017688;28;20475;-68
2023/01/06 10:40:45;;;;;;;1999.90;999.90;;;11.90;99.90;;;;;;5017501;28;20428;-70
2023/01/06 10:43:13;;;;;;;1999.90;999.90;;;11.90;99.90;;;;;;5018850;28;20475;-72
2023/01/06 10:45:41;;;;;;;1999.90;999.90;;;11.90;99.90;;;;;;5016581;28;20939;-68
2023/01/06 10:48:12;;;;;;;1999.90;999.90;;;12.00;99.90;;;;;;5017849;28;20444;-70
2023/01/06 10:50:41;;;;;;;1999.90;999.90;;;12.00;99.90;;;;;;5017845;28;20431;-69
2023/01/06 10:53:09;;;;;;;1999.90;999.90;;;12.10;99.90;;;;;;5017976;28;20428;-69
2023/01/06 10:55:39;;;;;;;1999.90;999.90;;;12.10;99.90;;;;;;5018127;28;20456;-67
2023/01/06 10:58:28;;;;;;;1999.90;999.90;;;12.10;99.90;;;;;;5018160;28;20425;-68
2023/01/06 11:00:56;;;;;;;1999.90;999.90;;;12.10;99.90;;;;;;5017519;28;20495;-70
2023/01/06 11:03:23;;;;;;;1999.90;999.90;;;12.10;99.90;;;;;;5017627;28;20431;-71
2023/01/06 11:06:04;;;;;;;1999.90;999.90;;;12.00;99.90;;;;;;5017768;28;20436;-66
2023/01/06 11:08:33;;;;;;;1999.90;999.90;;;12.10;99.90;;;;;;5016339;28;20434;-69
2023/01/06 11:11:00;;;;;;;1999.90;999.90;;;12.10;99.90;;;;;;5008868;28;20477;-70
2023/01/06 11:13:29;;;;;;;1999.90;999.90;;;12.10;99.90;;;;;;5003718;28;20490;-71
2023/01/06 11:15:57;;;;;;;1999.90;999.90;;;12.20;99.90;;;;;;5005408;28;20487;-70
2023/01/06 11:18:27;;;;;;;1999.90;999.90;;;12.30;99.90;;;;;;5005211;28;20487;-66
2023/01/06 11:21:12;;;;;;;1999.90;999.90;;;12.30;99.90;;;;;;5006427;28;20443;-66
2023/01/06 11:23:41;;;;;;;1999.90;999.90;;;12.20;99.90;;;;;;5000770;28;20437;-68
2023/01/06 11:26:17;;;;;;;1999.90;999.90;;;12.20;99.90;;;;;;5006995;28;20477;-65
2023/01/06 11:28:45;;;;;;;1999.90;999.90;;;12.20;99.90;;;;;;5002997;28;20440;-67
2023/01/06 11:31:19;;;;;;;1999.90;999.90;;;12.30;99.90;;;;;;5005978;28;21003;-66
2023/01/06 11:33:49;;;;;;;1999.90;999.90;;;12.40;99.90;;;;;;5003083;28;20432;-65
2023/01/06 11:36:18;;;;;;;1999.90;999.90;;;12.20;99.90;;;;;;5006352;28;20440;-66
2023/01/06 11:38:47;;;;;;;1999.90;999.90;;;12.30;99.90;;;;;;5002191;28;20440;-66
2023/01/06 11:41:23;;;;;;;1999.90;999.90;;;12.50;99.90;;;;;;5005456;28;20436;-66
2023/01/06 11:43:50;;;;;;;1999.90;999.90;;;12.60;99.90;;;;;;5003889;28;20426;-68
2023/01/06 11:46:22;;;;;;;1999.90;999.90;;;12.70;99.90;;;;;;5008273;28;20432;-67
2023/01/06 11:48:54;;;;;;;1999.90;999.90;;;12.80;99.90;;;;;;5008860;28;20585;-67
2023/01/06 11:51:44;;;;;;;1999.90;999.90;;;12.50;99.90;;;;;;5007297;28;20436;-67
2023/01/06 11:54:24;;;;;;;1999.90;999.90;;;12.50;99.90;;;;;;4996923;28;20432;-68
2023/01/06 11:56:58;;;;;;;1999.90;999.90;;;12.50;99.90;;;;;;5020414;28;20443;-67
2023/01/06 11:59:27;;;;;;;1999.90;999.90;;;12.30;99.90;;;;;;5013405;28;20420;-67
2023/01/06 12:01:58;;;;;;;1999.90;999.90;;;12.40;99.90;;;;;;5013207;28;20421;-67
2023/01/06 12:04:31;;;;;;;1999.90;999.90;;;12.30;99.90;;;;;;5012850;28;20974;-67
2023/01/06 12:07:04;;;;;;;1999.90;999.90;;;12.40;99.90;;;;;;5013307;28;20431;-67
2023/01/06 12:09:36;;;;;;;1999.90;999.90;;;12.40;99.90;;;;;;5015419;28;20436;-67
2023/01/06 12:12:06;;;;;;;1999.90;999.90;;;12.40;99.90;;;;;;5024528;28;20427;-67
2023/01/06 12:14:36;;;;;;;1999.90;999.90;;;12.50;99.90;;;;;;5032962;28;20807;-67
2023/01/06 12:17:06;;;;;;;1999.90;999.90;;;12.50;99.90;;;;;;5024984;28;20436;-67